createdAt,value
2022-11-24T00:00:43.041Z,6.50
2022-11-24T00:01:46.293Z,6.50
2022-11-24T00:02:48.559Z,6.50
2022-11-24T00:03:55.006Z,6.50
2022-11-24T00:04:57.103Z,6.50
2022-11-24T00:06:05.511Z,6.50
2022-11-24T00:07:08.685Z,6.60
2022-11-24T00:08:11.760Z,6.60
2022-11-24T00:09:14.955Z,6.60
2022-11-24T00:10:17.319Z,6.60
2022-11-24T00:11:22.164Z,6.60
2022-11-24T00:12:24.380Z,6.60
2022-11-24T00:13:29.364Z,6.60
2022-11-24T00:14:32.720Z,6.60
2022-11-24T00:15:35.055Z,6.60
2022-11-24T00:16:39.065Z,6.60
2022-11-24T00:17:41.292Z,6.60
2022-11-24T00:18:46.072Z,6.60
2022-11-24T00:19:48.301Z,6.60
2022-11-24T00:20:53.739Z,6.60
2022-11-24T00:21:55.893Z,6.60
2022-11-24T00:22:59.205Z,6.60
2022-11-24T00:24:01.759Z,6.60
2022-11-24T00:25:05.576Z,6.60
2022-11-24T00:26:09.412Z,6.60
2022-11-24T00:27:12.572Z,6.60
2022-11-24T00:28:14.780Z,6.60
2022-11-24T00:29:19.584Z,6.60
2022-11-24T00:30:21.757Z,6.60
2022-11-24T00:31:26.671Z,6.60
2022-11-24T00:32:28.973Z,6.60
2022-11-24T00:33:32.487Z,6.60
2022-11-24T00:34:35.986Z,6.60
2022-11-24T00:35:38.245Z,6.60
2022-11-24T00:36:42.829Z,6.60
2022-11-24T00:37:45.005Z,6.60
2022-11-24T00:38:48.389Z,6.60
2022-11-24T00:39:50.576Z,6.60
2022-11-24T00:40:54.369Z,6.70
2022-11-24T00:41:57.596Z,6.60
2022-11-24T00:43:00.457Z,6.60
2022-11-24T00:44:04.197Z,6.60
2022-11-24T00:45:13.846Z,6.70
2022-11-24T00:46:17.678Z,6.60
2022-11-24T00:47:20.109Z,6.70
2022-11-24T00:48:24.209Z,6.60
2022-11-24T00:49:26.447Z,6.70
2022-11-24T00:50:30.025Z,6.70
2022-11-24T00:51:32.250Z,6.70
2022-11-24T00:52:35.690Z,6.70
2022-11-24T00:53:38.038Z,6.70
2022-11-24T00:54:41.261Z,6.70
2022-11-24T00:55:43.462Z,6.70
2022-11-24T00:56:46.830Z,6.70
2022-11-24T00:57:49.082Z,6.70
2022-11-24T00:58:52.434Z,6.70
2022-11-24T00:59:54.631Z,6.70
2022-11-24T01:01:03.636Z,6.70
2022-11-24T01:02:06.041Z,6.80
2022-11-24T01:03:09.369Z,6.70
2022-11-24T01:04:11.667Z,6.70
2022-11-24T01:05:14.901Z,6.70
2022-11-24T01:06:18.604Z,6.70
2022-11-24T01:07:21.935Z,6.70
2022-11-24T01:08:24.206Z,6.70
2022-11-24T01:09:27.907Z,6.70
2022-11-24T01:10:30.545Z,6.70
2022-11-24T01:11:56.223Z,6.70
2022-11-24T01:12:58.350Z,6.70
2022-11-24T01:14:01.544Z,6.70
2022-11-24T01:15:04.144Z,6.70
2022-11-24T01:16:15.591Z,6.70
2022-11-24T01:17:18.981Z,6.70
2022-11-24T01:18:21.146Z,6.70
2022-11-24T01:19:24.943Z,6.70
2022-11-24T01:20:27.188Z,6.70
2022-11-24T01:21:30.489Z,6.70
2022-11-24T01:22:33.000Z,6.70
2022-11-24T01:23:36.210Z,6.70
2022-11-24T01:24:38.457Z,6.60
2022-11-24T01:25:41.730Z,6.60
2022-11-24T01:26:44.126Z,6.60
2022-11-24T01:27:47.392Z,6.60
2022-11-24T01:28:53.318Z,6.60
2022-11-24T01:29:56.541Z,6.60
2022-11-24T01:30:58.985Z,6.60
2022-11-24T01:32:03.706Z,6.50
2022-11-24T01:33:05.917Z,6.50
2022-11-24T01:34:09.510Z,6.50
2022-11-24T01:35:11.833Z,6.50
2022-11-24T01:36:15.365Z,6.50
2022-11-24T01:37:17.633Z,6.50
2022-11-24T01:38:20.902Z,6.50
2022-11-24T01:39:23.081Z,6.50
2022-11-24T01:40:26.343Z,6.50
2022-11-24T01:41:28.545Z,6.40
2022-11-24T01:42:43.972Z,6.40
2022-11-24T01:43:46.408Z,6.40
2022-11-24T01:44:53.024Z,6.40
2022-11-24T01:45:56.148Z,6.40
2022-11-24T01:47:01.821Z,6.40
2022-11-24T01:48:10.460Z,6.40
2022-11-24T01:49:18.014Z,6.40
2022-11-24T01:50:20.645Z,6.40
2022-11-24T01:51:26.537Z,6.40
2022-11-24T01:52:34.450Z,6.40
2022-11-24T01:53:39.253Z,6.40
2022-11-24T01:54:45.953Z,6.40
2022-11-24T01:55:50.096Z,6.40
2022-11-24T01:56:54.570Z,6.40
2022-11-24T01:58:00.943Z,6.40
2022-11-24T01:59:04.914Z,6.40
2022-11-24T02:00:11.813Z,6.40
2022-11-24T02:01:17.122Z,6.40
2022-11-24T02:02:22.329Z,6.40
2022-11-24T02:03:31.248Z,6.40
2022-11-24T02:04:35.826Z,6.40
2022-11-24T02:05:42.169Z,6.50
2022-11-24T02:06:47.468Z,6.50
2022-11-24T02:07:51.850Z,6.40
2022-11-24T02:09:00.176Z,6.50
2022-11-24T02:10:04.849Z,6.50
2022-11-24T02:11:08.236Z,6.50
2022-11-24T02:12:11.438Z,6.50
2022-11-24T02:13:16.581Z,6.40
2022-11-24T02:14:19.648Z,6.40
2022-11-24T02:15:23.609Z,6.40
2022-11-24T02:16:26.663Z,6.40
2022-11-24T02:17:29.940Z,6.40
2022-11-24T02:18:33.831Z,6.50
2022-11-24T02:19:45.236Z,6.40
2022-11-24T02:20:47.477Z,6.50
2022-11-24T02:21:50.868Z,6.50
2022-11-24T02:22:57.190Z,6.40
2022-11-24T02:24:11.224Z,6.40
2022-11-24T02:25:22.879Z,6.40
2022-11-24T02:26:41.187Z,6.40
2022-11-24T02:27:49.349Z,6.40
2022-11-24T02:28:55.922Z,6.40
2022-11-24T02:29:58.420Z,6.40
2022-11-24T02:31:03.225Z,6.40
2022-11-24T02:32:07.658Z,6.40
2022-11-24T02:33:12.756Z,6.40
2022-11-24T02:34:14.947Z,6.30
2022-11-24T02:35:18.435Z,6.30
2022-11-24T02:36:20.654Z,6.30
2022-11-24T02:37:24.038Z,6.30
2022-11-24T02:38:33.762Z,6.30
2022-11-24T02:39:37.187Z,6.20
2022-11-24T02:40:41.907Z,6.30
2022-11-24T02:41:53.447Z,6.20
2022-11-24T02:43:00.293Z,6.20
2022-11-24T02:44:03.841Z,6.20
2022-11-24T02:45:08.929Z,6.20
2022-11-24T02:46:12.507Z,6.20
2022-11-24T02:47:14.726Z,6.20
2022-11-24T02:48:18.692Z,6.30
2022-11-24T02:49:20.956Z,6.30
2022-11-24T02:50:24.236Z,6.30
2022-11-24T02:51:26.404Z,6.30
2022-11-24T02:52:29.655Z,6.30
2022-11-24T02:53:31.984Z,6.30
2022-11-24T02:54:35.611Z,6.30
2022-11-24T02:55:37.990Z,6.40
2022-11-24T02:56:41.268Z,6.40
2022-11-24T02:57:44.992Z,6.40
2022-11-24T02:58:48.410Z,6.40
2022-11-24T02:59:50.704Z,6.40
2022-11-24T03:00:54.329Z,6.40
2022-11-24T03:01:56.580Z,6.40
2022-11-24T03:03:00.152Z,6.40
2022-11-24T03:04:02.429Z,6.40
2022-11-24T03:05:06.473Z,6.40
2022-11-24T03:06:08.779Z,6.40
2022-11-24T03:07:12.208Z,6.40
2022-11-24T03:08:14.487Z,6.30
2022-11-24T03:09:17.872Z,6.40
2022-11-24T03:10:20.059Z,6.40
2022-11-24T03:11:23.266Z,6.40
2022-11-24T03:12:25.432Z,6.40
2022-11-24T03:13:30.376Z,6.40
2022-11-24T03:14:32.907Z,6.40
2022-11-24T03:15:36.454Z,6.40
2022-11-24T03:16:38.712Z,6.40
2022-11-24T03:17:41.925Z,6.40
2022-11-24T03:18:44.121Z,6.40
2022-11-24T03:19:47.438Z,6.40
2022-11-24T03:20:49.813Z,6.40
2022-11-24T03:21:53.081Z,6.40
2022-11-24T03:22:55.285Z,6.40
2022-11-24T03:23:58.572Z,6.40
2022-11-24T03:25:01.052Z,6.40
2022-11-24T03:26:10.932Z,6.40
2022-11-24T03:27:13.149Z,6.40
2022-11-24T03:28:17.040Z,6.40
2022-11-24T03:29:20.840Z,6.40
2022-11-24T03:30:24.204Z,6.40
2022-11-24T03:31:26.693Z,6.40
2022-11-24T03:32:30.141Z,6.40
2022-11-24T03:33:32.427Z,6.40
2022-11-24T03:34:36.036Z,6.40
2022-11-24T03:35:38.493Z,6.40
2022-11-24T03:36:41.790Z,6.40
2022-11-24T03:37:43.992Z,6.50
2022-11-24T03:38:47.503Z,6.50
2022-11-24T03:39:49.945Z,6.50
2022-11-24T03:40:53.321Z,6.50
2022-11-24T03:41:55.902Z,6.50
2022-11-24T03:42:59.342Z,6.40
2022-11-24T03:44:01.627Z,6.40
2022-11-24T03:46:30.927Z,6.40
2022-11-24T03:47:33.202Z,6.40
2022-11-24T03:48:36.530Z,6.40
2022-11-24T03:49:38.967Z,6.40
2022-11-24T03:50:42.329Z,6.40
2022-11-24T03:51:44.811Z,6.40
2022-11-24T03:52:48.272Z,6.40
2022-11-24T03:53:50.593Z,6.40
2022-11-24T03:54:54.099Z,6.50
2022-11-24T03:55:56.639Z,6.50
2022-11-24T03:57:00.188Z,6.40
2022-11-24T03:58:02.609Z,6.40
2022-11-24T03:59:05.820Z,6.50
2022-11-24T04:00:11.856Z,6.50
2022-11-24T04:01:15.297Z,6.50
2022-11-24T04:02:17.799Z,6.50
2022-11-24T04:03:20.402Z,6.50
2022-11-24T04:04:23.743Z,6.50
2022-11-24T04:05:25.968Z,6.50
2022-11-24T04:06:29.207Z,6.50
2022-11-24T04:07:31.433Z,6.50
2022-11-24T04:08:34.833Z,6.50
2022-11-24T04:09:36.973Z,6.50
2022-11-24T04:10:40.801Z,6.50
2022-11-24T04:12:01.679Z,6.50
2022-11-24T04:13:04.737Z,6.50
2022-11-24T04:14:13.222Z,6.50
2022-11-24T04:15:19.769Z,6.50
2022-11-24T04:16:21.960Z,6.50
2022-11-24T04:17:25.291Z,6.50
2022-11-24T04:18:27.451Z,6.40
2022-11-24T04:19:30.601Z,6.40
2022-11-24T04:20:33.352Z,6.40
2022-11-24T04:21:36.614Z,6.40
2022-11-24T04:22:39.022Z,6.40
2022-11-24T04:23:42.269Z,6.40
2022-11-24T04:24:44.339Z,6.40
2022-11-24T04:25:47.491Z,6.30
2022-11-24T04:26:49.707Z,6.40
2022-11-24T04:27:54.122Z,6.30
2022-11-24T04:28:56.166Z,6.30
2022-11-24T04:29:59.484Z,6.30
2022-11-24T04:31:04.378Z,6.30
2022-11-24T04:32:08.870Z,6.30
2022-11-24T04:33:13.085Z,6.30
2022-11-24T04:34:15.284Z,6.30
2022-11-24T04:35:18.996Z,6.30
2022-11-24T04:36:21.020Z,6.30
2022-11-24T04:37:24.170Z,6.30
2022-11-24T04:39:22.942Z,6.30
2022-11-24T04:39:49.451Z,6.30
2022-11-24T04:40:52.656Z,6.30
2022-11-24T04:41:54.903Z,6.30
2022-11-24T04:42:58.282Z,6.30
2022-11-24T04:44:00.412Z,6.30
2022-11-24T04:45:03.839Z,6.30
2022-11-24T04:46:11.162Z,6.40
2022-11-24T04:47:17.159Z,6.40
2022-11-24T04:48:19.208Z,6.40
2022-11-24T04:49:22.253Z,6.40
2022-11-24T04:50:24.503Z,6.40
2022-11-24T04:51:27.668Z,6.40
2022-11-24T04:52:30.957Z,6.40
2022-11-24T04:53:34.098Z,6.40
2022-11-24T04:54:37.028Z,6.50
2022-11-24T04:55:40.403Z,6.50
2022-11-24T04:56:44.007Z,6.50
2022-11-24T04:57:47.356Z,6.50
2022-11-24T04:58:49.541Z,6.50
2022-11-24T04:59:53.146Z,6.50
2022-11-24T05:00:55.242Z,6.50
2022-11-24T05:02:00.014Z,6.50
2022-11-24T05:03:02.182Z,6.50
2022-11-24T05:04:05.639Z,6.50
2022-11-24T05:05:08.858Z,6.50
2022-11-24T05:06:12.248Z,6.50
2022-11-24T05:07:18.683Z,6.50
2022-11-24T05:08:22.319Z,6.50
2022-11-24T05:09:41.762Z,6.50
2022-11-24T05:10:48.113Z,6.50
2022-11-24T05:11:50.425Z,6.50
2022-11-24T05:12:57.474Z,6.50
2022-11-24T05:14:01.085Z,6.50
2022-11-24T05:15:05.384Z,6.50
2022-11-24T05:16:08.864Z,6.50
2022-11-24T05:17:12.611Z,6.50
2022-11-24T05:18:18.926Z,6.50
2022-11-24T05:19:21.243Z,6.50
2022-11-24T05:20:25.037Z,6.50
2022-11-24T05:21:28.587Z,6.50
2022-11-24T05:22:31.634Z,6.50
2022-11-24T05:23:34.756Z,6.60
2022-11-24T05:24:36.890Z,6.60
2022-11-24T05:25:44.832Z,6.60
2022-11-24T05:26:49.575Z,6.60
2022-11-24T05:27:52.812Z,6.60
2022-11-24T05:28:55.086Z,6.60
2022-11-24T05:29:58.570Z,6.60
2022-11-24T05:31:01.109Z,6.60
2022-11-24T05:32:04.862Z,6.60
2022-11-24T05:33:12.189Z,6.50
2022-11-24T05:34:15.513Z,6.50
2022-11-24T05:35:18.988Z,6.50
2022-11-24T05:36:39.910Z,6.50
2022-11-24T05:37:43.109Z,6.50
2022-11-24T05:38:45.246Z,6.50
2022-11-24T05:39:48.600Z,6.50
2022-11-24T05:40:50.691Z,6.60
2022-11-24T05:41:54.069Z,6.60
2022-11-24T05:42:56.136Z,6.60
2022-11-24T05:43:59.256Z,6.60
2022-11-24T05:45:01.397Z,6.50
2022-11-24T05:46:04.576Z,6.60
2022-11-24T05:47:06.791Z,6.60
2022-11-24T05:48:14.224Z,6.60
2022-11-24T05:49:16.526Z,6.60
2022-11-24T05:51:56.698Z,6.60
2022-11-24T05:53:02.759Z,6.60
2022-11-24T05:54:06.257Z,6.60
2022-11-24T05:55:10.038Z,6.60
2022-11-24T05:56:13.411Z,6.60
2022-11-24T05:57:16.899Z,6.60
2022-11-24T05:58:20.069Z,6.60
2022-11-24T05:59:22.199Z,6.60
2022-11-24T06:00:25.440Z,6.60
2022-11-24T06:01:27.866Z,6.60
2022-11-24T06:02:31.242Z,6.60
2022-11-24T06:03:36.035Z,6.60
2022-11-24T06:04:38.334Z,6.60
2022-11-24T06:05:42.563Z,6.70
2022-11-24T06:06:46.219Z,6.70
2022-11-24T06:07:49.720Z,6.70
2022-11-24T06:08:52.127Z,6.70
2022-11-24T06:09:55.539Z,6.70
2022-11-24T06:11:17.182Z,6.70
2022-11-24T06:12:21.173Z,6.70
2022-11-24T06:13:23.628Z,6.70
2022-11-24T06:14:27.109Z,6.80
2022-11-24T06:15:29.268Z,6.70
2022-11-24T06:16:32.824Z,6.70
2022-11-24T06:17:35.151Z,6.80
2022-11-24T06:18:40.235Z,6.80
2022-11-24T06:19:45.587Z,6.80
2022-11-24T06:21:09.895Z,6.80
2022-11-24T06:22:12.777Z,6.80
2022-11-24T06:23:15.042Z,6.80
2022-11-24T06:24:18.374Z,6.80
2022-11-24T06:25:21.594Z,6.80
2022-11-24T06:26:23.785Z,6.80
2022-11-24T06:27:27.426Z,6.80
2022-11-24T06:28:29.806Z,6.80
2022-11-24T06:29:33.505Z,6.80
2022-11-24T06:30:41.580Z,6.80
2022-11-24T06:31:43.966Z,6.80
2022-11-24T06:32:49.960Z,6.80
2022-11-24T06:33:54.346Z,6.80
2022-11-24T06:34:57.978Z,6.80
2022-11-24T06:36:02.396Z,6.80
2022-11-24T06:37:06.009Z,6.80
2022-11-24T06:38:08.512Z,6.80
2022-11-24T06:39:12.248Z,6.80
2022-11-24T06:40:15.635Z,6.80
2022-11-24T06:41:19.626Z,6.80
2022-11-24T06:42:23.172Z,6.80
2022-11-24T06:43:27.086Z,6.80
2022-11-24T06:44:30.983Z,6.80
2022-11-24T06:45:33.558Z,6.80
2022-11-24T06:46:37.190Z,6.80
2022-11-24T06:47:39.534Z,6.80
2022-11-24T06:48:42.908Z,6.80
2022-11-24T06:49:49.989Z,6.80
2022-11-24T06:50:52.982Z,6.80
2022-11-24T06:51:56.499Z,6.80
2022-11-24T06:52:58.841Z,6.80
2022-11-24T06:54:02.151Z,6.80
2022-11-24T06:55:04.911Z,6.80
2022-11-24T06:56:15.642Z,6.80
2022-11-24T06:57:19.964Z,6.80
2022-11-24T06:58:22.724Z,6.80
2022-11-24T06:59:26.572Z,6.90
2022-11-24T07:00:29.371Z,6.90
2022-11-24T07:01:32.968Z,6.80
2022-11-24T07:02:41.086Z,6.80
2022-11-24T07:03:48.371Z,6.90
2022-11-24T07:04:53.480Z,6.90
2022-11-24T07:05:59.944Z,6.90
2022-11-24T07:07:03.318Z,6.90
2022-11-24T07:08:07.268Z,6.90
2022-11-24T07:09:10.888Z,6.90
2022-11-24T07:10:14.276Z,6.90
2022-11-24T07:11:18.465Z,6.90
2022-11-24T07:12:21.987Z,6.90
2022-11-24T07:13:24.296Z,6.90
2022-11-24T07:14:29.916Z,6.90
2022-11-24T07:15:32.306Z,6.90
2022-11-24T07:16:35.963Z,6.90
2022-11-24T07:17:38.873Z,7.00
2022-11-24T07:18:42.286Z,7.00
2022-11-24T07:19:44.340Z,7.00
2022-11-24T07:20:48.947Z,7.00
2022-11-24T07:21:51.012Z,7.00
2022-11-24T07:22:57.309Z,7.00
2022-11-24T07:23:59.417Z,7.00
2022-11-24T07:25:04.830Z,7.20
2022-11-24T07:26:08.832Z,7.30
2022-11-24T07:27:10.893Z,7.40
2022-11-24T07:28:14.037Z,7.80
2022-11-24T07:29:16.212Z,7.90
2022-11-24T07:30:19.557Z,8.10
2022-11-24T07:31:25.038Z,8.40
2022-11-24T07:32:28.436Z,8.40
2022-11-24T07:33:30.552Z,8.40
2022-11-24T07:34:34.136Z,8.30
2022-11-24T07:35:37.655Z,8.30
2022-11-24T07:36:45.610Z,8.30
2022-11-24T07:38:04.784Z,8.30
2022-11-24T07:39:08.412Z,8.30
2022-11-24T07:40:15.952Z,8.40
2022-11-24T07:41:19.730Z,8.50
2022-11-24T07:42:23.145Z,8.50
2022-11-24T07:43:25.274Z,8.50
2022-11-24T07:44:28.867Z,8.70
2022-11-24T07:45:31.406Z,8.80
2022-11-24T07:46:41.099Z,8.80
2022-11-24T07:47:56.992Z,8.90
2022-11-24T07:49:05.280Z,9.00
2022-11-24T07:50:20.931Z,9.00
2022-11-24T07:51:31.997Z,9.10
2022-11-24T07:52:52.624Z,8.80
2022-11-24T07:54:08.611Z,8.60
2022-11-24T07:55:22.154Z,8.60
2022-11-24T07:56:35.713Z,8.50
2022-11-24T07:57:38.849Z,8.50
2022-11-24T07:58:42.073Z,8.60
2022-11-24T07:59:44.144Z,8.40
2022-11-24T08:00:47.300Z,8.40
2022-11-24T08:01:52.234Z,8.40
2022-11-24T08:02:54.738Z,8.40
2022-11-24T08:03:57.904Z,8.50
2022-11-24T08:05:00.060Z,8.50
2022-11-24T08:07:26.581Z,8.40
2022-11-24T08:08:33.226Z,8.40
2022-11-24T08:09:36.553Z,8.40
2022-11-24T08:10:38.698Z,8.40
2022-11-24T08:11:41.957Z,8.40
2022-11-24T08:12:45.083Z,8.40
2022-11-24T08:13:47.330Z,8.50
2022-11-24T08:14:50.954Z,8.60
2022-11-24T08:15:52.998Z,8.60
2022-11-24T08:16:56.217Z,8.60
2022-11-24T08:18:01.835Z,8.70
2022-11-24T08:19:04.995Z,8.70
2022-11-24T08:20:09.853Z,8.70
2022-11-24T08:21:13.361Z,8.70
2022-11-24T08:22:16.567Z,8.70
2022-11-24T08:23:18.714Z,8.70
2022-11-24T08:24:23.295Z,8.70
2022-11-24T08:25:26.920Z,8.80
2022-11-24T08:26:30.096Z,8.80
2022-11-24T08:27:32.325Z,8.90
2022-11-24T08:28:36.108Z,8.90
2022-11-24T08:29:39.159Z,8.90
2022-11-24T08:30:41.367Z,9.00
2022-11-24T08:31:44.544Z,9.10
2022-11-24T08:32:46.717Z,9.10
2022-11-24T08:33:50.319Z,9.10
2022-11-24T08:34:59.504Z,9.10
2022-11-24T08:36:07.920Z,9.10
2022-11-24T08:37:11.350Z,9.10
2022-11-24T08:38:13.405Z,9.10
2022-11-24T08:39:16.604Z,9.00
2022-11-24T08:40:20.355Z,8.90
2022-11-24T08:41:23.590Z,8.90
2022-11-24T08:42:26.692Z,8.90
2022-11-24T08:43:28.765Z,8.90
2022-11-24T08:44:32.839Z,8.80
2022-11-24T08:45:41.043Z,8.70
2022-11-24T08:46:45.143Z,8.70
2022-11-24T08:47:51.950Z,8.60
2022-11-24T08:48:56.701Z,8.60
2022-11-24T08:49:59.869Z,8.70
2022-11-24T08:51:09.629Z,8.70
2022-11-24T08:52:12.864Z,8.80
2022-11-24T08:53:16.091Z,8.80
2022-11-24T08:54:20.424Z,8.80
2022-11-24T08:55:24.110Z,8.80
2022-11-24T08:56:28.610Z,8.80
2022-11-24T08:57:31.788Z,8.80
2022-11-24T08:58:34.733Z,8.80
2022-11-24T08:59:37.953Z,8.70
2022-11-24T09:00:40.057Z,8.60
2022-11-24T09:01:43.158Z,8.70
2022-11-24T09:02:45.213Z,8.70
2022-11-24T09:03:51.014Z,8.80
2022-11-24T09:04:54.670Z,8.80
2022-11-24T09:05:57.692Z,8.80
2022-11-24T09:07:01.135Z,8.80
2022-11-24T09:08:04.244Z,8.90
2022-11-24T09:09:07.762Z,9.00
2022-11-24T09:10:10.232Z,9.00
2022-11-24T09:11:17.486Z,9.00
2022-11-24T09:12:20.784Z,9.00
2022-11-24T09:13:22.935Z,9.10
2022-11-24T09:14:26.272Z,9.20
2022-11-24T09:15:28.475Z,9.10
2022-11-24T09:16:31.600Z,9.10
2022-11-24T09:17:33.786Z,9.10
2022-11-24T09:18:37.340Z,9.10
2022-11-24T09:19:40.565Z,9.10
2022-11-24T09:20:43.895Z,9.10
2022-11-24T09:21:47.075Z,9.00
2022-11-24T09:22:49.215Z,9.10
2022-11-24T09:23:53.968Z,9.10
2022-11-24T09:24:58.172Z,9.10
2022-11-24T09:26:05.266Z,9.00
2022-11-24T09:27:10.041Z,9.00
2022-11-24T09:28:12.196Z,9.00
2022-11-24T09:29:15.482Z,9.00
2022-11-24T09:30:17.954Z,9.00
2022-11-24T09:31:22.186Z,9.00
2022-11-24T09:32:25.826Z,9.00
2022-11-24T09:33:29.377Z,9.00
2022-11-24T09:34:32.560Z,9.10
2022-11-24T09:35:38.013Z,9.10
2022-11-24T09:36:41.204Z,9.20
2022-11-24T09:37:45.898Z,9.30
2022-11-24T09:38:50.192Z,9.30
2022-11-24T09:39:53.342Z,9.40
2022-11-24T09:40:55.874Z,9.50
2022-11-24T09:42:18.962Z,9.50
2022-11-24T09:43:35.419Z,9.50
2022-11-24T09:45:15.698Z,9.60
2022-11-24T09:46:38.423Z,9.60
2022-11-24T09:47:59.307Z,9.70
2022-11-24T09:49:04.809Z,9.60
2022-11-24T09:50:15.946Z,9.70
2022-11-24T09:51:26.850Z,9.60
2022-11-24T09:52:47.131Z,9.50
2022-11-24T09:53:58.351Z,9.50
2022-11-24T09:55:52.703Z,9.50
2022-11-24T09:58:29.892Z,9.50
2022-11-24T10:05:04.122Z,9.40
2022-11-24T10:06:22.571Z,9.40
2022-11-24T10:07:31.785Z,9.50
2022-11-24T10:08:48.467Z,9.60
2022-11-24T10:10:01.588Z,9.60
2022-11-24T10:11:06.749Z,9.70
2022-11-24T10:12:24.770Z,9.70
2022-11-24T10:14:00.709Z,9.70
2022-11-24T10:15:21.589Z,9.70
2022-11-24T10:16:42.751Z,9.50
2022-11-24T10:18:04.194Z,9.60
2022-11-24T10:19:15.941Z,9.60
2022-11-24T10:20:29.097Z,9.70
2022-11-24T10:21:52.686Z,9.50
2022-11-24T10:23:13.180Z,9.40
2022-11-24T10:24:38.337Z,9.40
2022-11-24T10:25:49.508Z,9.30
2022-11-24T10:26:57.825Z,9.30
2022-11-24T10:28:04.374Z,9.30
2022-11-24T10:29:22.296Z,9.20
2022-11-24T10:30:25.649Z,9.10
2022-11-24T10:31:34.268Z,9.00
2022-11-24T10:32:42.893Z,8.90
2022-11-24T10:33:54.398Z,8.80
2022-11-24T10:35:49.192Z,8.70
2022-11-24T10:37:05.436Z,8.60
2022-11-24T10:38:32.686Z,8.50
2022-11-24T10:39:49.663Z,8.40
2022-11-24T10:47:07.970Z,8.10
2022-11-24T10:48:38.225Z,8.10
2022-11-24T10:50:06.475Z,8.10
2022-11-24T10:51:48.212Z,8.00
2022-11-24T10:53:12.904Z,7.90
2022-11-24T10:54:19.579Z,7.70
2022-11-24T10:55:23.283Z,7.60
2022-11-24T10:56:25.556Z,7.50
2022-11-24T10:57:31.145Z,7.50
2022-11-24T10:58:37.969Z,7.50
2022-11-24T10:59:40.851Z,7.50
2022-11-24T11:00:44.434Z,7.40
2022-11-24T11:01:47.023Z,7.50
2022-11-24T11:02:52.107Z,7.40
2022-11-24T11:04:03.243Z,7.40
2022-11-24T11:06:00.258Z,7.30
2022-11-24T11:07:19.700Z,7.30
2022-11-24T11:08:25.954Z,7.30
2022-11-24T11:09:38.044Z,7.30
2022-11-24T11:10:47.900Z,7.30
2022-11-24T11:11:59.111Z,7.20
2022-11-24T11:13:26.662Z,7.20
2022-11-24T11:14:31.632Z,7.20
2022-11-24T11:15:35.642Z,7.20
2022-11-24T11:16:41.749Z,7.20
2022-11-24T11:17:45.474Z,7.20
2022-11-24T11:18:50.904Z,7.20
2022-11-24T11:20:01.947Z,7.30
2022-11-24T11:21:07.094Z,7.30
2022-11-24T11:22:17.625Z,7.30
2022-11-24T11:23:28.125Z,7.30
2022-11-24T11:24:31.784Z,7.30
2022-11-24T11:25:38.245Z,7.30
2022-11-24T11:26:44.229Z,7.30
2022-11-24T11:27:48.451Z,7.30
2022-11-24T11:31:17.984Z,7.40
2022-11-24T11:34:04.664Z,7.50
2022-11-24T11:35:13.334Z,7.40
2022-11-24T11:36:20.422Z,7.40
2022-11-24T11:37:27.546Z,7.40
2022-11-24T11:38:37.565Z,7.40
2022-11-24T11:39:48.603Z,7.40
2022-11-24T11:40:52.222Z,7.40
2022-11-24T11:42:09.250Z,7.40
2022-11-24T11:43:28.124Z,7.30
2022-11-24T11:44:38.015Z,7.30
2022-11-24T11:45:46.342Z,7.30
2022-11-24T11:46:49.999Z,7.30
2022-11-24T11:47:57.005Z,7.30
2022-11-24T11:49:00.377Z,7.30
2022-11-24T11:50:04.302Z,7.30
2022-11-24T11:51:27.115Z,7.40
2022-11-24T11:52:52.121Z,7.40
2022-11-24T11:54:06.908Z,7.40
2022-11-24T11:55:28.110Z,7.40
2022-11-24T11:56:34.133Z,7.50
2022-11-24T11:57:47.260Z,7.50
2022-11-24T11:59:07.384Z,7.50
2022-11-24T12:00:15.577Z,7.40
2022-11-24T12:01:36.401Z,7.50
2022-11-24T12:03:02.141Z,7.50
2022-11-24T12:04:16.911Z,7.40
2022-11-24T12:05:28.817Z,7.40
2022-11-24T12:07:02.822Z,7.40
2022-11-24T12:08:21.343Z,7.40
2022-11-24T12:09:37.803Z,7.40
2022-11-24T12:10:46.553Z,7.40
2022-11-24T12:11:58.052Z,7.50
2022-11-24T12:13:36.794Z,7.50
2022-11-24T12:14:48.899Z,7.50
2022-11-24T12:15:55.509Z,7.60
2022-11-24T12:17:07.071Z,7.60
2022-11-24T12:18:55.734Z,7.60
2022-11-24T12:20:08.136Z,7.70
2022-11-24T12:21:21.512Z,7.70
2022-11-24T12:22:38.171Z,7.70
2022-11-24T12:23:53.292Z,7.80
2022-11-24T12:25:05.834Z,7.80
2022-11-24T12:26:15.054Z,7.80
2022-11-24T12:27:26.161Z,7.70
2022-11-24T12:28:39.550Z,7.60
2022-11-24T12:30:03.559Z,7.60
2022-11-24T12:31:09.440Z,7.70
2022-11-24T12:32:29.038Z,7.70
2022-11-24T12:33:55.286Z,7.80
2022-11-24T12:35:08.970Z,7.80
2022-11-24T12:36:22.515Z,7.80
2022-11-24T12:37:40.729Z,7.80
2022-11-24T12:38:56.350Z,7.80
2022-11-24T12:40:06.662Z,7.80
2022-11-24T12:41:43.726Z,7.70
2022-11-24T12:42:58.743Z,7.80
2022-11-24T12:44:03.105Z,7.80
2022-11-24T12:45:13.253Z,7.70
2022-11-24T12:46:20.821Z,7.70
2022-11-24T12:47:30.508Z,7.70
2022-11-24T12:48:47.409Z,7.70
2022-11-24T12:50:02.801Z,7.70
2022-11-24T12:51:18.435Z,7.80
2022-11-24T12:52:26.074Z,7.90
2022-11-24T12:53:33.219Z,7.90
2022-11-24T12:54:41.343Z,7.90
2022-11-24T12:55:47.363Z,8.00
2022-11-24T12:57:00.796Z,8.00
2022-11-24T12:58:11.919Z,8.00
2022-11-24T12:59:25.536Z,8.10
2022-11-24T13:00:36.095Z,8.20
2022-11-24T13:01:47.131Z,8.20
2022-11-24T13:03:25.397Z,8.20
2022-11-24T13:04:36.055Z,8.20
2022-11-24T13:05:49.186Z,8.30
2022-11-24T13:06:55.612Z,8.40
2022-11-24T13:08:01.541Z,8.40
2022-11-24T13:09:10.240Z,8.30
2022-11-24T14:13:09.897Z,7.30
2022-11-24T14:14:21.847Z,7.20
2022-11-24T14:15:29.561Z,7.20
2022-11-24T14:16:32.973Z,7.20
2022-11-24T14:17:39.352Z,7.30
2022-11-24T14:18:43.788Z,7.30
2022-11-24T14:19:48.983Z,7.30
2022-11-24T14:20:51.305Z,7.30
2022-11-24T14:21:54.700Z,7.40
2022-11-24T14:22:58.119Z,7.40
2022-11-24T14:24:06.520Z,7.30
2022-11-24T14:25:23.864Z,7.30
2022-11-24T14:26:33.650Z,7.30
2022-11-24T14:27:40.770Z,7.40
2022-11-24T14:28:47.690Z,7.30
2022-11-24T14:29:56.074Z,7.30
2022-11-24T14:31:10.165Z,7.30
2022-11-24T14:32:17.611Z,7.40
2022-11-24T14:33:20.586Z,7.30
2022-11-24T14:34:25.594Z,7.30
2022-11-24T14:35:29.592Z,7.30
2022-11-24T14:36:33.076Z,7.30
2022-11-24T14:37:37.451Z,7.40
2022-11-24T14:38:40.964Z,7.40
2022-11-24T14:39:44.578Z,7.40
2022-11-24T14:40:50.090Z,7.40
2022-11-24T14:41:56.920Z,7.40
2022-11-24T14:42:59.303Z,7.40
2022-11-24T14:44:18.911Z,7.40
2022-11-24T14:45:22.583Z,7.40
2022-11-24T14:46:24.943Z,7.40
2022-11-24T14:47:32.253Z,7.40
2022-11-24T14:48:38.173Z,7.40
2022-11-24T14:49:44.425Z,7.40
2022-11-24T14:50:51.102Z,7.40
2022-11-24T14:51:58.888Z,7.40
2022-11-24T14:53:02.276Z,7.40
2022-11-24T14:54:06.570Z,7.40
2022-11-24T14:55:25.384Z,7.40
2022-11-24T14:56:30.644Z,7.40
2022-11-24T14:57:35.778Z,7.40
2022-11-24T14:58:42.180Z,7.30
2022-11-24T15:00:17.036Z,7.30
2022-11-24T15:01:23.345Z,7.20
2022-11-24T15:02:44.119Z,7.10
2022-11-24T15:03:47.483Z,6.80
2022-11-24T15:05:04.941Z,6.50
2022-11-24T15:06:18.139Z,6.40
2022-11-24T15:07:27.400Z,6.20
2022-11-24T15:08:35.899Z,6.10
2022-11-24T15:09:53.070Z,6.00
2022-11-24T15:11:01.587Z,6.00
2022-11-24T15:12:09.310Z,5.90
2022-11-24T15:13:19.495Z,5.90
2022-11-24T15:14:32.893Z,5.90
2022-11-24T15:15:39.824Z,5.90
2022-11-24T15:16:43.342Z,6.00
2022-11-24T15:17:48.355Z,6.00
2022-11-24T15:18:59.435Z,6.10
2022-11-24T15:20:09.254Z,6.10
2022-11-24T15:21:19.346Z,6.20
2022-11-24T15:22:40.815Z,6.20
2022-11-24T15:24:17.117Z,6.20
2022-11-24T15:25:32.777Z,6.10
2022-11-24T15:26:42.158Z,6.20
2022-11-24T15:27:44.873Z,6.10
2022-11-24T15:28:48.848Z,6.10
2022-11-24T15:29:52.674Z,6.10
2022-11-24T15:31:01.368Z,6.10
2022-11-24T15:32:15.125Z,6.20
2022-11-24T15:33:20.630Z,6.20
2022-11-24T15:34:24.083Z,6.20
2022-11-24T15:35:30.054Z,6.10
2022-11-24T15:36:33.667Z,6.20
2022-11-24T15:37:36.181Z,6.20
2022-11-24T15:38:39.621Z,6.20
2022-11-24T15:39:42.323Z,6.20
2022-11-24T15:41:56.368Z,6.10
2022-11-24T15:48:17.522Z,5.90
2022-11-24T15:49:50.279Z,5.90
2022-11-24T15:52:05.424Z,5.90
2022-11-24T15:54:56.211Z,5.80
2022-11-24T15:56:57.423Z,5.80
2022-11-24T16:03:45.838Z,5.70
2022-11-24T16:12:44.704Z,5.50
2022-11-24T18:11:47.233Z,3.90
2022-11-24T18:12:59.843Z,3.90
2022-11-24T18:14:10.482Z,3.90
2022-11-24T18:15:23.976Z,3.80
2022-11-24T18:16:55.804Z,3.70
2022-11-24T18:18:09.574Z,3.70
2022-11-24T18:19:28.929Z,3.70
2022-11-24T18:20:43.837Z,3.70
2022-11-24T18:22:15.747Z,3.70
2022-11-24T18:23:23.943Z,3.60
2022-11-24T18:25:11.661Z,3.60
2022-11-24T18:26:26.478Z,3.50
2022-11-24T18:27:46.316Z,3.50
2022-11-24T18:28:54.322Z,3.50
2022-11-24T18:29:56.759Z,3.50
2022-11-24T18:31:07.116Z,3.50
2022-11-24T18:32:25.804Z,3.50
2022-11-24T18:33:32.617Z,3.50
2022-11-24T18:34:39.888Z,3.60
2022-11-24T18:35:56.252Z,3.60
2022-11-24T18:36:59.971Z,3.60